sensor_id;sensor_type;location;lat;lon;timestamp;pressure;altitude;pressure_sealevel;temperature;humidity
15880;BME280;61999;51.514;14.614;2022-07-06T00:00:33;100286.16;;;15.13;37.54
15880;BME280;61999;51.514;14.614;2022-07-06T00:03:01;100294.72;;;14.50;38.90
15880;BME280;61999;51.514;14.614;2022-07-06T00:05:29;100305.31;;;14.01;39.60
15880;BME280;61999;51.514;14.614;2022-07-06T00:07:57;100313.53;;;13.48;41.09
15880;BME280;61999;51.514;14.614;2022-07-06T00:10:25;100308.38;;;14.26;39.37
15880;BME280;61999;51.514;14.614;2022-07-06T00:12:53;100311.38;;;14.89;37.66
15880;BME280;61999;51.514;14.614;2022-07-06T00:15:23;100321.41;;;15.15;37.52
15880;BME280;61999;51.514;14.614;2022-07-06T00:17:51;100335.47;;;14.78;40.49
15880;BME280;61999;51.514;14.614;2022-07-06T00:20:19;100358.34;;;13.00;44.58
15880;BME280;61999;51.514;14.614;2022-07-06T00:22:47;100385.28;;;11.86;49.24
15880;BME280;61999;51.514;14.614;2022-07-06T00:25:15;100422.63;;;10.89;51.88
15880;BME280;61999;51.514;14.614;2022-07-06T00:27:43;100426.59;;;9.35;61.20
15880;BME280;61999;51.514;14.614;2022-07-06T00:30:11;100454.06;;;8.37;65.69
15880;BME280;61999;51.514;14.614;2022-07-06T00:32:40;100424.69;;;8.72;71.64
15880;BME280;61999;51.514;14.614;2022-07-06T00:35:08;100417.94;;;8.40;69.65
15880;BME280;61999;51.514;14.614;2022-07-06T00:37:37;100417.25;;;8.91;68.28
15880;BME280;61999;51.514;14.614;2022-07-06T00:40:07;100421.69;;;8.78;67.08
15880;BME280;61999;51.514;14.614;2022-07-06T00:42:40;100428.69;;;9.43;66.77
15880;BME280;61999;51.514;14.614;2022-07-06T00:45:10;100440.69;;;9.98;65.17
15880;BME280;61999;51.514;14.614;2022-07-06T00:47:41;100444.44;;;9.04;67.24
15880;BME280;61999;51.514;14.614;2022-07-06T00:50:12;100446.06;;;7.97;69.79
15880;BME280;61999;51.514;14.614;2022-07-06T00:52:47;100436.06;;;8.31;70.11
15880;BME280;61999;51.514;14.614;2022-07-06T00:55:18;100427.72;;;9.05;67.54
15880;BME280;61999;51.514;14.614;2022-07-06T00:57:47;100425.50;;;8.99;67.61
15880;BME280;61999;51.514;14.614;2022-07-06T01:00:19;100436.94;;;8.71;68.82
15880;BME280;61999;51.514;14.614;2022-07-06T01:02:49;100444.59;;;8.76;69.74
15880;BME280;61999;51.514;14.614;2022-07-06T01:05:18;100434.25;;;8.73;70.93
15880;BME280;61999;51.514;14.614;2022-07-06T01:07:49;100429.09;;;9.36;68.97
15880;BME280;61999;51.514;14.614;2022-07-06T01:10:18;100437.84;;;9.11;68.29
15880;BME280;61999;51.514;14.614;2022-07-06T01:12:48;100429.13;;;9.24;68.90
15880;BME280;61999;51.514;14.614;2022-07-06T01:15:19;100426.47;;;9.24;67.59
15880;BME280;61999;51.514;14.614;2022-07-06T01:17:50;100428.03;;;9.90;66.23
15880;BME280;61999;51.514;14.614;2022-07-06T01:20:20;100434.94;;;8.89;68.29
15880;BME280;61999;51.514;14.614;2022-07-06T01:22:51;100429.59;;;8.63;69.65
15880;BME280;61999;51.514;14.614;2022-07-06T01:25:20;100416.44;;;8.36;71.00
15880;BME280;61999;51.514;14.614;2022-07-06T01:27:49;100416.69;;;9.26;68.93
15880;BME280;61999;51.514;14.614;2022-07-06T01:30:19;100410.34;;;9.92;66.18
15880;BME280;61999;51.514;14.614;2022-07-06T01:32:47;100401.31;;;10.44;63.43
15880;BME280;61999;51.514;14.614;2022-07-06T01:35:16;100407.09;;;10.50;64.02
15880;BME280;61999;51.514;14.614;2022-07-06T01:37:45;100401.13;;;10.83;62.58
15880;BME280;61999;51.514;14.614;2022-07-06T01:40:13;100404.19;;;11.01;61.66
15880;BME280;61999;51.514;14.614;2022-07-06T01:42:41;100385.97;;;11.20;60.59
15880;BME280;61999;51.514;14.614;2022-07-06T01:45:10;100380.72;;;10.50;63.80
15880;BME280;61999;51.514;14.614;2022-07-06T01:47:38;100367.13;;;11.02;61.94
15880;BME280;61999;51.514;14.614;2022-07-06T01:50:08;100350.97;;;11.29;59.42
15880;BME280;61999;51.514;14.614;2022-07-06T01:52:36;100354.47;;;11.41;58.70
15880;BME280;61999;51.514;14.614;2022-07-06T01:55:07;100356.28;;;11.52;58.56
15880;BME280;61999;51.514;14.614;2022-07-06T01:57:35;100354.81;;;11.59;58.00
15880;BME280;61999;51.514;14.614;2022-07-06T02:00:07;100356.97;;;11.65;57.82
15880;BME280;61999;51.514;14.614;2022-07-06T02:02:36;100368.63;;;11.51;59.55
15880;BME280;61999;51.514;14.614;2022-07-06T02:05:04;100378.28;;;11.17;61.43
15880;BME280;61999;51.514;14.614;2022-07-06T02:07:32;100380.31;;;11.02;61.56
15880;BME280;61999;51.514;14.614;2022-07-06T02:10:00;100379.31;;;11.39;60.02
15880;BME280;61999;51.514;14.614;2022-07-06T02:12:29;100375.34;;;11.55;58.81
15880;BME280;61999;51.514;14.614;2022-07-06T02:14:57;100376.44;;;11.64;58.16
15880;BME280;61999;51.514;14.614;2022-07-06T02:17:25;100384.84;;;11.69;57.62
15880;BME280;61999;51.514;14.614;2022-07-06T02:19:53;100383.97;;;11.69;58.16
15880;BME280;61999;51.514;14.614;2022-07-06T02:22:21;100384.59;;;11.72;57.47
15880;BME280;61999;51.514;14.614;2022-07-06T02:24:49;100371.50;;;11.71;58.08
15880;BME280;61999;51.514;14.614;2022-07-06T02:27:17;100380.75;;;11.76;57.48
15880;BME280;61999;51.514;14.614;2022-07-06T02:29:46;100371.63;;;11.80;56.45
15880;BME280;61999;51.514;14.614;2022-07-06T02:32:14;100374.38;;;11.79;56.65
15880;BME280;61999;51.514;14.614;2022-07-06T02:34:42;100367.28;;;11.79;56.49
15880;BME280;61999;51.514;14.614;2022-07-06T02:37:10;100369.94;;;11.79;56.51
15880;BME280;61999;51.514;14.614;2022-07-06T02:39:39;100360.44;;;11.77;56.80
15880;BME280;61999;51.514;14.614;2022-07-06T02:42:07;100367.06;;;11.71;56.79
15880;BME280;61999;51.514;14.614;2022-07-06T02:44:36;100370.66;;;11.70;56.78
15880;BME280;61999;51.514;14.614;2022-07-06T02:47:06;100362.63;;;11.61;57.88
15880;BME280;61999;51.514;14.614;2022-07-06T02:49:34;100368.16;;;10.88;60.44
15880;BME280;61999;51.514;14.614;2022-07-06T02:52:02;100385.81;;;10.16;63.09
15880;BME280;61999;51.514;14.614;2022-07-06T02:54:30;100373.97;;;10.45;62.16
15880;BME280;61999;51.514;14.614;2022-07-06T02:56:58;100373.53;;;10.76;61.23
15880;BME280;61999;51.514;14.614;2022-07-06T02:59:26;100377.56;;;11.04;59.39
15880;BME280;61999;51.514;14.614;2022-07-06T03:01:54;100385.72;;;10.41;62.13
15880;BME280;61999;51.514;14.614;2022-07-06T03:04:24;100378.03;;;10.62;61.47
15880;BME280;61999;51.514;14.614;2022-07-06T03:06:51;100385.50;;;10.44;62.15
15880;BME280;61999;51.514;14.614;2022-07-06T03:09:19;100381.22;;;10.31;62.53
15880;BME280;61999;51.514;14.614;2022-07-06T03:11:47;100370.78;;;10.77;60.55
15880;BME280;61999;51.514;14.614;2022-07-06T03:14:15;100370.56;;;10.91;59.49
15880;BME280;61999;51.514;14.614;2022-07-06T03:16:43;100369.88;;;11.01;59.19
15880;BME280;61999;51.514;14.614;2022-07-06T03:19:16;100363.53;;;11.03;58.65
15880;BME280;61999;51.514;14.614;2022-07-06T03:21:45;100364.13;;;11.07;58.10
15880;BME280;61999;51.514;14.614;2022-07-06T03:24:13;100375.44;;;11.09;58.09
15880;BME280;61999;51.514;14.614;2022-07-06T03:26:41;100367.38;;;11.10;57.75
15880;BME280;61999;51.514;14.614;2022-07-06T03:29:09;100369.91;;;11.12;58.08
15880;BME280;61999;51.514;14.614;2022-07-06T03:31:37;100369.91;;;11.12;57.89
15880;BME280;61999;51.514;14.614;2022-07-06T03:34:05;100375.19;;;11.12;57.77
15880;BME280;61999;51.514;14.614;2022-07-06T03:36:34;100369.41;;;11.07;58.28
15880;BME280;61999;51.514;14.614;2022-07-06T03:39:06;100377.28;;;10.84;59.51
15880;BME280;61999;51.514;14.614;2022-07-06T03:41:34;100378.59;;;10.07;61.35
15880;BME280;61999;51.514;14.614;2022-07-06T03:44:02;100377.88;;;10.53;60.52
15880;BME280;61999;51.514;14.614;2022-07-06T03:46:30;100376.97;;;10.65;60.19
15880;BME280;61999;51.514;14.614;2022-07-06T03:48:58;100379.78;;;10.75;59.79
15880;BME280;61999;51.514;14.614;2022-07-06T03:51:26;100382.19;;;10.78;59.77
15880;BME280;61999;51.514;14.614;2022-07-06T03:53:54;100375.44;;;10.74;59.83
15880;BME280;61999;51.514;14.614;2022-07-06T03:56:23;100385.00;;;10.63;60.16
15880;BME280;61999;51.514;14.614;2022-07-06T03:59:01;100374.59;;;10.73;59.73
15880;BME280;61999;51.514;14.614;2022-07-06T04:01:30;100381.31;;;10.77;60.69
15880;BME280;61999;51.514;14.614;2022-07-06T04:03:58;100378.44;;;10.69;60.92
15880;BME280;61999;51.514;14.614;2022-07-06T04:06:26;100379.03;;;10.73;61.32
15880;BME280;61999;51.514;14.614;2022-07-06T04:08:54;100387.28;;;10.68;61.02
15880;BME280;61999;51.514;14.614;2022-07-06T04:11:23;100379.59;;;10.65;61.24
15880;BME280;61999;51.514;14.614;2022-07-06T04:13:51;100389.88;;;10.57;61.48
15880;BME280;61999;51.514;14.614;2022-07-06T04:16:21;100376.97;;;10.65;61.70
15880;BME280;61999;51.514;14.614;2022-07-06T04:18:49;100388.63;;;10.50;62.60
15880;BME280;61999;51.514;14.614;2022-07-06T04:21:17;100400.88;;;9.77;64.09
15880;BME280;61999;51.514;14.614;2022-07-06T04:23:45;100391.16;;;9.90;64.94
15880;BME280;61999;51.514;14.614;2022-07-06T04:26:13;100387.22;;;9.72;65.37
15880;BME280;61999;51.514;14.614;2022-07-06T04:28:42;100390.16;;;9.03;66.78
15880;BME280;61999;51.514;14.614;2022-07-06T04:31:10;100393.13;;;9.24;67.63
15880;BME280;61999;51.514;14.614;2022-07-06T04:33:42;100395.94;;;8.83;68.83
15880;BME280;61999;51.514;14.614;2022-07-06T04:36:10;100405.13;;;9.41;67.14
15880;BME280;61999;51.514;14.614;2022-07-06T04:38:38;100402.38;;;9.55;67.27
15880;BME280;61999;51.514;14.614;2022-07-06T04:41:06;100415.66;;;9.41;67.19
15880;BME280;61999;51.514;14.614;2022-07-06T04:43:34;100409.38;;;9.93;66.14
15880;BME280;61999;51.514;14.614;2022-07-06T04:46:04;100413.34;;;9.75;65.60
15880;BME280;61999;51.514;14.614;2022-07-06T04:48:32;100417.31;;;9.42;66.39
15880;BME280;61999;51.514;14.614;2022-07-06T04:51:03;100421.59;;;9.05;67.80
15880;BME280;61999;51.514;14.614;2022-07-06T04:53:31;100424.22;;;8.65;70.24
15880;BME280;61999;51.514;14.614;2022-07-06T04:55:59;100417.06;;;8.94;68.33
15880;BME280;61999;51.514;14.614;2022-07-06T04:58:27;100414.34;;;8.96;70.70
15880;BME280;61999;51.514;14.614;2022-07-06T05:00:55;100408.88;;;8.86;69.91
15880;BME280;61999;51.514;14.614;2022-07-06T05:03:24;100416.25;;;9.45;68.31
15880;BME280;61999;51.514;14.614;2022-07-06T05:05:52;100416.97;;;8.83;70.93
15880;BME280;61999;51.514;14.614;2022-07-06T05:08:21;100412.28;;;9.52;69.28
15880;BME280;61999;51.514;14.614;2022-07-06T05:10:49;100426.50;;;9.49;69.05
15880;BME280;61999;51.514;14.614;2022-07-06T05:13:18;100424.50;;;9.40;68.10
15880;BME280;61999;51.514;14.614;2022-07-06T05:15:46;100423.84;;;9.24;68.54
15880;BME280;61999;51.514;14.614;2022-07-06T05:18:15;100431.84;;;9.61;68.01
15880;BME280;61999;51.514;14.614;2022-07-06T05:20:44;100430.16;;;9.59;67.52
15880;BME280;61999;51.514;14.614;2022-07-06T05:23:13;100443.09;;;9.88;66.26
15880;BME280;61999;51.514;14.614;2022-07-06T05:25:41;100433.63;;;9.98;65.75
15880;BME280;61999;51.514;14.614;2022-07-06T05:28:09;100431.47;;;9.67;64.93
15880;BME280;61999;51.514;14.614;2022-07-06T05:30:38;100430.16;;;9.59;64.73
15880;BME280;61999;51.514;14.614;2022-07-06T05:33:06;100429.09;;;9.88;65.26
15880;BME280;61999;51.514;14.614;2022-07-06T05:35:34;100430.41;;;10.56;64.01
15880;BME280;61999;51.514;14.614;2022-07-06T05:38:19;100426.41;;;10.37;63.36
15880;BME280;61999;51.514;14.614;2022-07-06T05:40:48;100427.69;;;10.68;63.34
15880;BME280;61999;51.514;14.614;2022-07-06T05:43:16;100426.44;;;10.85;62.78
15880;BME280;61999;51.514;14.614;2022-07-06T05:45:44;100426.38;;;10.26;63.24
15880;BME280;61999;51.514;14.614;2022-07-06T05:48:12;100434.00;;;10.55;62.38
15880;BME280;61999;51.514;14.614;2022-07-06T05:50:57;100437.47;;;10.90;61.96
15880;BME280;61999;51.514;14.614;2022-07-06T05:53:27;100428.19;;;11.09;60.78
15880;BME280;61999;51.514;14.614;2022-07-06T05:55:55;100441.66;;;11.28;61.12
15880;BME280;61999;51.514;14.614;2022-07-06T05:58:23;100433.53;;;10.96;59.85
15880;BME280;61999;51.514;14.614;2022-07-06T06:00:52;100445.31;;;10.68;58.87
15880;BME280;61999;51.514;14.614;2022-07-06T06:03:20;100449.66;;;11.04;59.02
15880;BME280;61999;51.514;14.614;2022-07-06T06:05:48;100458.59;;;10.90;58.41
15880;BME280;61999;51.514;14.614;2022-07-06T06:08:16;100461.91;;;10.81;57.26
15880;BME280;61999;51.514;14.614;2022-07-06T06:10:45;100449.75;;;11.38;57.12
15880;BME280;61999;51.514;14.614;2022-07-06T06:13:13;100453.69;;;11.32;55.65
15880;BME280;61999;51.514;14.614;2022-07-06T06:15:41;100452.75;;;10.98;53.87
15880;BME280;61999;51.514;14.614;2022-07-06T06:18:10;100453.19;;;11.27;53.63
15880;BME280;61999;51.514;14.614;2022-07-06T06:20:38;100453.50;;;11.47;54.34
15880;BME280;61999;51.514;14.614;2022-07-06T06:23:06;100453.13;;;11.74;53.90
15880;BME280;61999;51.514;14.614;2022-07-06T06:25:36;100446.16;;;11.39;52.37
15880;BME280;61999;51.514;14.614;2022-07-06T06:28:08;100450.25;;;11.99;52.98
15880;BME280;61999;51.514;14.614;2022-07-06T06:30:38;100451.56;;;11.71;49.90
15880;BME280;61999;51.514;14.614;2022-07-06T06:33:08;100453.97;;;11.63;49.87
15880;BME280;61999;51.514;14.614;2022-07-06T06:35:37;100455.66;;;11.64;51.37
15880;BME280;61999;51.514;14.614;2022-07-06T06:40:34;100462.16;;;11.71;49.98
15880;BME280;61999;51.514;14.614;2022-07-06T06:43:02;100465.97;;;11.45;47.25
15880;BME280;61999;51.514;14.614;2022-07-06T06:45:31;100460.72;;;11.67;49.94
15880;BME280;61999;51.514;14.614;2022-07-06T06:48:00;100464.31;;;11.55;49.37
15880;BME280;61999;51.514;14.614;2022-07-06T06:50:28;100463.75;;;11.27;48.85
15880;BME280;61999;51.514;14.614;2022-07-06T06:52:56;100465.03;;;11.68;48.07
15880;BME280;61999;51.514;14.614;2022-07-06T06:55:24;100467.44;;;11.71;49.40
15880;BME280;61999;51.514;14.614;2022-07-06T06:57:52;100470.53;;;11.54;48.99
15880;BME280;61999;51.514;14.614;2022-07-06T07:00:20;100465.53;;;11.96;48.59
15880;BME280;61999;51.514;14.614;2022-07-06T07:02:49;100474.41;;;12.17;47.18
15880;BME280;61999;51.514;14.614;2022-07-06T07:05:17;100471.97;;;12.03;47.84
15880;BME280;61999;51.514;14.614;2022-07-06T07:07:45;100473.69;;;12.26;47.88
15880;BME280;61999;51.514;14.614;2022-07-06T07:10:13;100465.25;;;12.44;47.56
15880;BME280;61999;51.514;14.614;2022-07-06T07:12:45;100475.00;;;12.76;47.97
15880;BME280;61999;51.514;14.614;2022-07-06T07:15:15;100474.69;;;13.01;47.62
15880;BME280;61999;51.514;14.614;2022-07-06T07:17:43;100474.75;;;12.79;46.54
15880;BME280;61999;51.514;14.614;2022-07-06T07:20:13;100482.13;;;13.07;47.30
15880;BME280;61999;51.514;14.614;2022-07-06T07:22:41;100482.91;;;13.19;47.25
15880;BME280;61999;51.514;14.614;2022-07-06T07:25:09;100479.56;;;12.74;46.41
15880;BME280;61999;51.514;14.614;2022-07-06T07:27:37;100488.78;;;12.58;45.97
15880;BME280;61999;51.514;14.614;2022-07-06T07:30:06;100482.66;;;12.90;45.94
15880;BME280;61999;51.514;14.614;2022-07-06T07:32:34;100477.72;;;13.17;45.12
15880;BME280;61999;51.514;14.614;2022-07-06T07:35:04;100475.25;;;13.26;44.97
15880;BME280;61999;51.514;14.614;2022-07-06T07:37:33;100481.63;;;13.65;45.43
15880;BME280;61999;51.514;14.614;2022-07-06T07:40:01;100477.59;;;13.40;45.51
15880;BME280;61999;51.514;14.614;2022-07-06T07:42:31;100486.66;;;13.89;45.76
15880;BME280;61999;51.514;14.614;2022-07-06T07:44:59;100485.66;;;13.59;44.97
15880;BME280;61999;51.514;14.614;2022-07-06T07:47:27;100484.50;;;13.52;42.86
15880;BME280;61999;51.514;14.614;2022-07-06T07:49:55;100487.63;;;12.17;42.60
15880;BME280;61999;51.514;14.614;2022-07-06T07:52:23;100491.22;;;11.82;46.70
15880;BME280;61999;51.514;14.614;2022-07-06T07:54:52;100487.25;;;12.77;47.02
15880;BME280;61999;51.514;14.614;2022-07-06T07:57:34;100488.91;;;13.42;45.12
15880;BME280;61999;51.514;14.614;2022-07-06T08:00:03;100487.19;;;13.83;42.96
15880;BME280;61999;51.514;14.614;2022-07-06T08:02:32;100486.78;;;14.28;45.24
15880;BME280;61999;51.514;14.614;2022-07-06T08:05:00;100484.56;;;13.20;41.14
15880;BME280;61999;51.514;14.614;2022-07-06T08:07:28;100494.44;;;12.42;42.24
15880;BME280;61999;51.514;14.614;2022-07-06T08:09:57;100489.53;;;13.55;42.28
15880;BME280;61999;51.514;14.614;2022-07-06T08:12:25;100491.72;;;13.92;41.70
15880;BME280;61999;51.514;14.614;2022-07-06T08:14:53;100493.88;;;12.71;39.63
15880;BME280;61999;51.514;14.614;2022-07-06T08:17:22;100494.69;;;11.83;40.34
15880;BME280;61999;51.514;14.614;2022-07-06T08:19:50;100495.47;;;13.06;42.76
15880;BME280;61999;51.514;14.614;2022-07-06T08:22:18;100484.00;;;13.58;39.85
15880;BME280;61999;51.514;14.614;2022-07-06T08:24:46;100497.25;;;13.89;38.36
15880;BME280;61999;51.514;14.614;2022-07-06T08:27:16;100492.81;;;14.30;38.89
15880;BME280;61999;51.514;14.614;2022-07-06T08:29:44;100494.97;;;14.46;37.90
15880;BME280;61999;51.514;14.614;2022-07-06T08:32:12;100493.03;;;13.77;39.06
15880;BME280;61999;51.514;14.614;2022-07-06T08:34:46;100494.34;;;14.33;38.72
15880;BME280;61999;51.514;14.614;2022-07-06T08:37:14;100495.47;;;14.40;38.21
15880;BME280;61999;51.514;14.614;2022-07-06T08:39:42;100495.75;;;14.37;35.83
15880;BME280;61999;51.514;14.614;2022-07-06T08:42:12;100496.34;;;14.00;38.87
15880;BME280;61999;51.514;14.614;2022-07-06T08:44:44;100505.47;;;14.17;36.53
15880;BME280;61999;51.514;14.614;2022-07-06T08:47:13;100512.69;;;13.53;36.51
15880;BME280;61999;51.514;14.614;2022-07-06T08:49:42;100511.69;;;13.54;36.35
15880;BME280;61999;51.514;14.614;2022-07-06T08:52:11;100509.56;;;13.90;39.66
15880;BME280;61999;51.514;14.614;2022-07-06T08:54:40;100498.94;;;13.06;36.33
15880;BME280;61999;51.514;14.614;2022-07-06T08:57:08;100503.16;;;13.09;38.28
15880;BME280;61999;51.514;14.614;2022-07-06T08:59:38;100501.34;;;12.66;36.21
15880;BME280;61999;51.514;14.614;2022-07-06T09:02:10;100490.09;;;12.96;35.93
15880;BME280;61999;51.514;14.614;2022-07-06T09:04:41;100488.88;;;13.84;37.79
15880;BME280;61999;51.514;14.614;2022-07-06T09:07:10;100503.13;;;13.41;35.87
15880;BME280;61999;51.514;14.614;2022-07-06T09:09:41;100493.50;;;12.87;36.88
15880;BME280;61999;51.514;14.614;2022-07-06T09:12:12;100500.25;;;14.05;37.67
15880;BME280;61999;51.514;14.614;2022-07-06T09:14:40;100492.94;;;14.28;38.05
15880;BME280;61999;51.514;14.614;2022-07-06T09:17:12;100492.50;;;15.22;36.33
15880;BME280;61999;51.514;14.614;2022-07-06T09:19:45;100491.94;;;15.75;37.85
15880;BME280;61999;51.514;14.614;2022-07-06T09:22:26;100498.78;;;15.97;35.42
15880;BME280;61999;51.514;14.614;2022-07-06T09:25:04;100493.38;;;16.17;34.94
15880;BME280;61999;51.514;14.614;2022-07-06T09:27:37;100486.63;;;16.22;33.27
15880;BME280;61999;51.514;14.614;2022-07-06T09:30:07;100490.16;;;15.86;36.29
15880;BME280;61999;51.514;14.614;2022-07-06T09:32:43;100495.28;;;15.11;34.53
15880;BME280;61999;51.514;14.614;2022-07-06T09:35:21;100496.28;;;14.90;32.27
15880;BME280;61999;51.514;14.614;2022-07-06T09:38:01;100495.56;;;15.08;33.74
15880;BME280;61999;51.514;14.614;2022-07-06T09:40:33;100488.03;;;15.13;33.31
15880;BME280;61999;51.514;14.614;2022-07-06T09:43:13;100494.41;;;15.59;32.28
15880;BME280;61999;51.514;14.614;2022-07-06T09:45:44;100513.41;;;16.39;34.89
15880;BME280;61999;51.514;14.614;2022-07-06T09:48:15;100509.00;;;14.87;32.93
15880;BME280;61999;51.514;14.614;2022-07-06T09:50:47;100502.50;;;15.67;34.02
15880;BME280;61999;51.514;14.614;2022-07-06T09:53:18;100496.38;;;16.77;34.17
15880;BME280;61999;51.514;14.614;2022-07-06T09:55:49;100507.94;;;16.68;34.30
15880;BME280;61999;51.514;14.614;2022-07-06T09:58:19;100505.81;;;16.44;34.51
15880;BME280;61999;51.514;14.614;2022-07-06T10:00:53;100502.16;;;16.90;35.47
15880;BME280;61999;51.514;14.614;2022-07-06T10:03:24;100501.78;;;16.12;34.22
15880;BME280;61999;51.514;14.614;2022-07-06T10:05:52;100500.34;;;15.14;34.89
15880;BME280;61999;51.514;14.614;2022-07-06T10:08:21;100500.22;;;15.82;30.98
15880;BME280;61999;51.514;14.614;2022-07-06T10:10:50;100490.03;;;16.60;33.84
15880;BME280;61999;51.514;14.614;2022-07-06T10:13:23;100494.31;;;15.31;35.25
15880;BME280;61999;51.514;14.614;2022-07-06T10:15:52;100510.47;;;14.10;34.27
15880;BME280;61999;51.514;14.614;2022-07-06T10:18:22;100499.94;;;14.39;36.00
15880;BME280;61999;51.514;14.614;2022-07-06T10:20:51;100515.41;;;14.94;34.95
15880;BME280;61999;51.514;14.614;2022-07-06T10:23:20;100506.03;;;13.38;35.82
15880;BME280;61999;51.514;14.614;2022-07-06T10:25:49;100503.84;;;12.79;38.19
15880;BME280;61999;51.514;14.614;2022-07-06T10:28:20;100504.91;;;14.63;37.02
15880;BME280;61999;51.514;14.614;2022-07-06T10:30:50;100503.63;;;13.77;36.48
15880;BME280;61999;51.514;14.614;2022-07-06T10:33:18;100501.97;;;14.57;35.96
15880;BME280;61999;51.514;14.614;2022-07-06T10:35:51;100488.72;;;15.34;34.07
15880;BME280;61999;51.514;14.614;2022-07-06T10:38:20;100490.84;;;16.15;31.38
15880;BME280;61999;51.514;14.614;2022-07-06T10:40:48;100480.56;;;16.48;32.38
15880;BME280;61999;51.514;14.614;2022-07-06T10:43:35;100481.09;;;16.61;34.14
15880;BME280;61999;51.514;14.614;2022-07-06T10:46:09;100492.34;;;16.27;29.98
15880;BME280;61999;51.514;14.614;2022-07-06T10:48:39;100490.72;;;14.24;33.09
15880;BME280;61999;51.514;14.614;2022-07-06T10:51:22;100498.16;;;16.13;31.89
15880;BME280;61999;51.514;14.614;2022-07-06T10:53:57;100502.28;;;16.25;31.87
15880;BME280;61999;51.514;14.614;2022-07-06T10:56:33;100500.00;;;15.56;31.68
15880;BME280;61999;51.514;14.614;2022-07-06T10:59:09;100505.94;;;15.30;32.84
15880;BME280;61999;51.514;14.614;2022-07-06T11:01:38;100498.84;;;15.68;31.94
15880;BME280;61999;51.514;14.614;2022-07-06T11:04:09;100494.88;;;16.47;30.24
15880;BME280;61999;51.514;14.614;2022-07-06T11:06:40;100487.09;;;17.43;30.90
15880;BME280;61999;51.514;14.614;2022-07-06T11:09:09;100484.03;;;18.33;29.43
15880;BME280;61999;51.514;14.614;2022-07-06T11:11:41;100490.47;;;15.63;31.09
15880;BME280;61999;51.514;14.614;2022-07-06T11:14:12;100496.91;;;17.16;32.59
15880;BME280;61999;51.514;14.614;2022-07-06T11:17:03;100492.81;;;17.48;29.83
15880;BME280;61999;51.514;14.614;2022-07-06T11:19:31;100496.25;;;17.40;30.12
15880;BME280;61999;51.514;14.614;2022-07-06T11:22:08;100488.22;;;15.68;29.72
15880;BME280;61999;51.514;14.614;2022-07-06T11:24:38;100489.06;;;15.69;30.55
15880;BME280;61999;51.514;14.614;2022-07-06T11:27:07;100483.88;;;16.60;31.12
15880;BME280;61999;51.514;14.614;2022-07-06T11:29:36;100477.81;;;16.67;29.04
15880;BME280;61999;51.514;14.614;2022-07-06T11:32:08;100482.16;;;15.38;30.91
15880;BME280;61999;51.514;14.614;2022-07-06T11:34:41;100477.72;;;16.59;29.73
15880;BME280;61999;51.514;14.614;2022-07-06T11:37:12;100470.41;;;17.93;29.61
15880;BME280;61999;51.514;14.614;2022-07-06T11:39:42;100475.16;;;18.07;29.17
15880;BME280;61999;51.514;14.614;2022-07-06T11:42:12;100477.38;;;17.86;30.38
15880;BME280;61999;51.514;14.614;2022-07-06T11:44:41;100478.13;;;17.70;32.13
15880;BME280;61999;51.514;14.614;2022-07-06T11:47:11;100480.41;;;15.57;30.49
15880;BME280;61999;51.514;14.614;2022-07-06T11:49:41;100485.78;;;14.60;32.53
15880;BME280;61999;51.514;14.614;2022-07-06T11:52:12;100494.47;;;15.20;32.74
15880;BME280;61999;51.514;14.614;2022-07-06T11:54:41;100491.25;;;15.26;35.60
15880;BME280;61999;51.514;14.614;2022-07-06T11:57:11;100490.00;;;16.15;32.08
15880;BME280;61999;51.514;14.614;2022-07-06T11:59:41;100480.38;;;16.32;32.59
15880;BME280;61999;51.514;14.614;2022-07-06T12:02:15;100482.31;;;15.84;34.61
15880;BME280;61999;51.514;14.614;2022-07-06T12:04:45;100480.78;;;16.37;29.39
15880;BME280;61999;51.514;14.614;2022-07-06T12:07:16;100471.06;;;17.35;28.35
15880;BME280;61999;51.514;14.614;2022-07-06T12:09:47;100473.66;;;19.21;28.90
15880;BME280;61999;51.514;14.614;2022-07-06T12:12:15;100474.34;;;18.23;25.93
15880;BME280;61999;51.514;14.614;2022-07-06T12:14:44;100474.16;;;18.84;28.58
15880;BME280;61999;51.514;14.614;2022-07-06T12:17:14;100472.69;;;19.30;27.51
15880;BME280;61999;51.514;14.614;2022-07-06T12:19:42;100467.59;;;19.60;28.13
15880;BME280;61999;51.514;14.614;2022-07-06T12:22:11;100480.13;;;18.61;26.13
15880;BME280;61999;51.514;14.614;2022-07-06T12:24:43;100482.53;;;18.22;27.77
15880;BME280;61999;51.514;14.614;2022-07-06T12:27:15;100472.22;;;17.93;27.67
15880;BME280;61999;51.514;14.614;2022-07-06T12:29:44;100469.47;;;18.11;29.16
15880;BME280;61999;51.514;14.614;2022-07-06T12:32:18;100462.09;;;17.96;27.45
15880;BME280;61999;51.514;14.614;2022-07-06T12:34:46;100448.72;;;20.01;24.29
15880;BME280;61999;51.514;14.614;2022-07-06T12:37:14;100449.84;;;21.89;24.96
15880;BME280;61999;51.514;14.614;2022-07-06T12:39:46;100449.97;;;21.66;22.77
15880;BME280;61999;51.514;14.614;2022-07-06T12:42:17;100452.13;;;22.22;25.55
15880;BME280;61999;51.514;14.614;2022-07-06T12:44:49;100454.53;;;20.44;22.37
15880;BME280;61999;51.514;14.614;2022-07-06T12:47:21;100441.59;;;18.96;25.41
15880;BME280;61999;51.514;14.614;2022-07-06T12:50:06;100458.16;;;18.17;26.80
15880;BME280;61999;51.514;14.614;2022-07-06T12:52:34;100465.63;;;18.64;30.23
15880;BME280;61999;51.514;14.614;2022-07-06T12:55:06;100468.31;;;19.29;29.51
15880;BME280;61999;51.514;14.614;2022-07-06T12:57:44;100471.88;;;19.85;30.21